Terminal Aerodrome Forecast
Issued by NWS

Home | Current Version | Previous Version | Text Only | Print | Product List | Glossary On
Versions: 1 2 3 4 5 6 7 8 9 10 11 12 13 14 15 16 17 18 19 20 21 22 23 24 25
507
FTUS41 KBTV 132015 AAA
TAFSLK
TAF AMD
KSLK 132015Z 1320/1418 27012G22KT P6SM OVC030
      TEMPO 1320/1324 3SM HZ BKN020
     FM140600 30012KT P6SM SCT015=

USA.gov is the U.S. government's official web portal to all federal, state and local government web resources and services.